sensor_id;sensor_type;location;lat;lon;timestamp;temperature;humidity
19232;DHT22;9750;48.730;10.294;2022-09-09T00:00:35;15.60;94.90
19232;DHT22;9750;48.730;10.294;2022-09-09T00:03:12;15.60;94.90
19232;DHT22;9750;48.730;10.294;2022-09-09T00:05:46;15.60;95.00
19232;DHT22;9750;48.730;10.294;2022-09-09T00:08:20;15.60;95.10
19232;DHT22;9750;48.730;10.294;2022-09-09T00:10:52;15.60;95.10
19232;DHT22;9750;48.730;10.294;2022-09-09T00:13:30;15.60;95.00
19232;DHT22;9750;48.730;10.294;2022-09-09T00:16:04;15.60;94.90
19232;DHT22;9750;48.730;10.294;2022-09-09T00:18:49;15.60;95.00
19232;DHT22;9750;48.730;10.294;2022-09-09T00:21:19;15.60;95.10
19232;DHT22;9750;48.730;10.294;2022-09-09T00:23:51;15.60;95.20
19232;DHT22;9750;48.730;10.294;2022-09-09T00:26:25;15.50;95.20
19232;DHT22;9750;48.730;10.294;2022-09-09T00:29:03;15.50;94.80
19232;DHT22;9750;48.730;10.294;2022-09-09T00:31:32;15.50;94.50
19232;DHT22;9750;48.730;10.294;2022-09-09T00:34:05;15.60;94.40
19232;DHT22;9750;48.730;10.294;2022-09-09T00:36:37;15.50;94.50
19232;DHT22;9750;48.730;10.294;2022-09-09T00:39:05;15.60;94.30
19232;DHT22;9750;48.730;10.294;2022-09-09T00:41:46;15.60;94.20
19232;DHT22;9750;48.730;10.294;2022-09-09T00:44:25;15.60;94.20
19232;DHT22;9750;48.730;10.294;2022-09-09T00:47:18;15.60;94.40
19232;DHT22;9750;48.730;10.294;2022-09-09T00:50:00;15.60;94.60
19232;DHT22;9750;48.730;10.294;2022-09-09T00:52:35;15.60;94.70
19232;DHT22;9750;48.730;10.294;2022-09-09T00:55:09;15.60;94.80
19232;DHT22;9750;48.730;10.294;2022-09-09T00:57:41;15.60;94.80
19232;DHT22;9750;48.730;10.294;2022-09-09T01:00:22;15.60;94.90
19232;DHT22;9750;48.730;10.294;2022-09-09T01:03:19;15.50;94.80
19232;DHT22;9750;48.730;10.294;2022-09-09T01:06:00;15.50;94.90
19232;DHT22;9750;48.730;10.294;2022-09-09T01:08:59;15.50;95.00
19232;DHT22;9750;48.730;10.294;2022-09-09T01:11:33;15.50;95.10
19232;DHT22;9750;48.730;10.294;2022-09-09T01:14:14;15.50;95.10
19232;DHT22;9750;48.730;10.294;2022-09-09T01:16:45;15.50;95.20
19232;DHT22;9750;48.730;10.294;2022-09-09T01:19:19;15.50;95.20
19232;DHT22;9750;48.730;10.294;2022-09-09T01:21:56;15.40;95.30
19232;DHT22;9750;48.730;10.294;2022-09-09T01:24:37;15.40;95.20
19232;DHT22;9750;48.730;10.294;2022-09-09T01:27:08;15.40;95.30
19232;DHT22;9750;48.730;10.294;2022-09-09T01:29:36;15.40;95.30
19232;DHT22;9750;48.730;10.294;2022-09-09T01:32:40;15.40;95.30
19232;DHT22;9750;48.730;10.294;2022-09-09T01:35:10;15.40;95.30
19232;DHT22;9750;48.730;10.294;2022-09-09T01:37:38;15.40;95.40
19232;DHT22;9750;48.730;10.294;2022-09-09T01:40:06;15.40;95.40
19232;DHT22;9750;48.730;10.294;2022-09-09T01:42:35;15.30;95.40
19232;DHT22;9750;48.730;10.294;2022-09-09T01:45:04;15.30;95.50
19232;DHT22;9750;48.730;10.294;2022-09-09T01:47:32;15.40;95.50
19232;DHT22;9750;48.730;10.294;2022-09-09T01:50:00;15.30;95.60
19232;DHT22;9750;48.730;10.294;2022-09-09T01:52:44;15.30;95.70
19232;DHT22;9750;48.730;10.294;2022-09-09T01:55:14;15.30;95.70
19232;DHT22;9750;48.730;10.294;2022-09-09T01:57:51;15.20;95.70
19232;DHT22;9750;48.730;10.294;2022-09-09T02:00:20;15.20;95.80
19232;DHT22;9750;48.730;10.294;2022-09-09T02:02:53;15.20;95.70
19232;DHT22;9750;48.730;10.294;2022-09-09T02:05:31;15.10;95.80
19232;DHT22;9750;48.730;10.294;2022-09-09T02:08:06;15.00;95.90
19232;DHT22;9750;48.730;10.294;2022-09-09T02:10:39;14.90;95.80
19232;DHT22;9750;48.730;10.294;2022-09-09T02:13:34;14.80;95.80
19232;DHT22;9750;48.730;10.294;2022-09-09T02:16:06;14.70;96.00
19232;DHT22;9750;48.730;10.294;2022-09-09T02:18:38;14.70;95.80
19232;DHT22;9750;48.730;10.294;2022-09-09T02:21:07;14.70;95.90
19232;DHT22;9750;48.730;10.294;2022-09-09T02:23:39;14.70;96.00
19232;DHT22;9750;48.730;10.294;2022-09-09T02:26:09;14.70;96.10
19232;DHT22;9750;48.730;10.294;2022-09-09T02:28:41;14.70;96.40
19232;DHT22;9750;48.730;10.294;2022-09-09T02:31:09;14.70;96.40
19232;DHT22;9750;48.730;10.294;2022-09-09T02:33:42;14.60;96.40
19232;DHT22;9750;48.730;10.294;2022-09-09T02:36:12;14.60;96.20
19232;DHT22;9750;48.730;10.294;2022-09-09T02:38:46;14.60;96.10
19232;DHT22;9750;48.730;10.294;2022-09-09T02:41:16;14.50;95.90
19232;DHT22;9750;48.730;10.294;2022-09-09T02:43:45;14.50;96.00
19232;DHT22;9750;48.730;10.294;2022-09-09T02:46:26;14.50;96.20
19232;DHT22;9750;48.730;10.294;2022-09-09T02:49:00;14.40;96.30
19232;DHT22;9750;48.730;10.294;2022-09-09T02:51:35;14.30;96.20
19232;DHT22;9750;48.730;10.294;2022-09-09T02:54:10;14.30;96.20
19232;DHT22;9750;48.730;10.294;2022-09-09T02:56:44;14.30;96.10
19232;DHT22;9750;48.730;10.294;2022-09-09T02:59:14;14.30;96.50
19232;DHT22;9750;48.730;10.294;2022-09-09T03:01:42;14.40;96.60
19232;DHT22;9750;48.730;10.294;2022-09-09T03:04:09;14.40;96.80
19232;DHT22;9750;48.730;10.294;2022-09-09T03:06:37;14.40;96.70
19232;DHT22;9750;48.730;10.294;2022-09-09T03:09:04;14.30;96.90
19232;DHT22;9750;48.730;10.294;2022-09-09T03:11:31;14.30;96.90
19232;DHT22;9750;48.730;10.294;2022-09-09T03:13:59;14.20;96.60
19232;DHT22;9750;48.730;10.294;2022-09-09T03:16:28;14.20;96.60
19232;DHT22;9750;48.730;10.294;2022-09-09T03:18:55;14.20;96.60
19232;DHT22;9750;48.730;10.294;2022-09-09T03:21:23;14.10;96.60
19232;DHT22;9750;48.730;10.294;2022-09-09T03:23:50;14.10;96.60
19232;DHT22;9750;48.730;10.294;2022-09-09T03:26:17;14.20;96.60
19232;DHT22;9750;48.730;10.294;2022-09-09T03:28:45;14.20;96.70
19232;DHT22;9750;48.730;10.294;2022-09-09T03:34:23;14.10;96.90
19232;DHT22;9750;48.730;10.294;2022-09-09T03:36:51;14.10;97.00
19232;DHT22;9750;48.730;10.294;2022-09-09T03:39:18;14.10;97.10
19232;DHT22;9750;48.730;10.294;2022-09-09T03:41:45;14.20;97.10
19232;DHT22;9750;48.730;10.294;2022-09-09T03:44:14;14.10;97.00
19232;DHT22;9750;48.730;10.294;2022-09-09T03:46:41;14.10;97.20
19232;DHT22;9750;48.730;10.294;2022-09-09T03:49:08;14.10;97.50
19232;DHT22;9750;48.730;10.294;2022-09-09T03:51:37;14.10;97.20
19232;DHT22;9750;48.730;10.294;2022-09-09T03:54:06;14.10;97.10
19232;DHT22;9750;48.730;10.294;2022-09-09T03:56:36;14.10;97.20
19232;DHT22;9750;48.730;10.294;2022-09-09T03:59:03;14.10;97.20
19232;DHT22;9750;48.730;10.294;2022-09-09T04:01:31;14.10;97.30
19232;DHT22;9750;48.730;10.294;2022-09-09T04:03:58;14.10;97.50
19232;DHT22;9750;48.730;10.294;2022-09-09T04:06:28;14.10;97.60
19232;DHT22;9750;48.730;10.294;2022-09-09T04:08:57;14.00;97.70
19232;DHT22;9750;48.730;10.294;2022-09-09T04:11:24;13.80;98.00
19232;DHT22;9750;48.730;10.294;2022-09-09T04:13:51;13.90;98.10
19232;DHT22;9750;48.730;10.294;2022-09-09T04:16:19;13.90;98.00
19232;DHT22;9750;48.730;10.294;2022-09-09T04:18:46;14.00;98.00
19232;DHT22;9750;48.730;10.294;2022-09-09T04:21:14;14.00;98.10
19232;DHT22;9750;48.730;10.294;2022-09-09T04:23:41;14.00;98.10
19232;DHT22;9750;48.730;10.294;2022-09-09T04:26:10;14.00;98.10
19232;DHT22;9750;48.730;10.294;2022-09-09T04:28:38;14.10;98.00
19232;DHT22;9750;48.730;10.294;2022-09-09T04:31:06;14.10;98.10
19232;DHT22;9750;48.730;10.294;2022-09-09T04:33:35;14.10;98.20
19232;DHT22;9750;48.730;10.294;2022-09-09T04:36:03;14.10;98.10
19232;DHT22;9750;48.730;10.294;2022-09-09T04:38:30;14.20;98.10
19232;DHT22;9750;48.730;10.294;2022-09-09T04:40:57;14.20;98.20
19232;DHT22;9750;48.730;10.294;2022-09-09T04:43:26;14.20;98.40
19232;DHT22;9750;48.730;10.294;2022-09-09T04:45:54;14.30;98.50
19232;DHT22;9750;48.730;10.294;2022-09-09T04:48:21;14.30;98.80
19232;DHT22;9750;48.730;10.294;2022-09-09T04:50:57;14.40;98.50
19232;DHT22;9750;48.730;10.294;2022-09-09T04:53:25;14.50;99.00
19232;DHT22;9750;48.730;10.294;2022-09-09T04:56:00;14.50;99.10
19232;DHT22;9750;48.730;10.294;2022-09-09T04:58:29;14.60;99.80
19232;DHT22;9750;48.730;10.294;2022-09-09T05:01:03;14.60;99.90
19232;DHT22;9750;48.730;10.294;2022-09-09T05:03:31;14.60;99.90
19232;DHT22;9750;48.730;10.294;2022-09-09T05:06:03;14.60;99.90
19232;DHT22;9750;48.730;10.294;2022-09-09T05:08:31;14.70;99.90
19232;DHT22;9750;48.730;10.294;2022-09-09T05:10:59;14.70;99.90
19232;DHT22;9750;48.730;10.294;2022-09-09T05:13:28;14.70;99.90
19232;DHT22;9750;48.730;10.294;2022-09-09T05:15:57;14.70;99.90
19232;DHT22;9750;48.730;10.294;2022-09-09T05:18:24;14.70;99.90
19232;DHT22;9750;48.730;10.294;2022-09-09T05:20:52;14.70;99.90
19232;DHT22;9750;48.730;10.294;2022-09-09T05:23:19;14.70;99.90
19232;DHT22;9750;48.730;10.294;2022-09-09T05:25:55;14.80;99.90
19232;DHT22;9750;48.730;10.294;2022-09-09T05:28:23;14.80;99.90
19232;DHT22;9750;48.730;10.294;2022-09-09T05:31:01;14.80;99.90
19232;DHT22;9750;48.730;10.294;2022-09-09T05:33:30;14.90;99.90
19232;DHT22;9750;48.730;10.294;2022-09-09T05:35:58;14.90;99.90
19232;DHT22;9750;48.730;10.294;2022-09-09T05:38:26;14.90;99.90
19232;DHT22;9750;48.730;10.294;2022-09-09T05:40:53;14.90;99.90
19232;DHT22;9750;48.730;10.294;2022-09-09T05:43:21;15.00;99.90
19232;DHT22;9750;48.730;10.294;2022-09-09T05:46:00;15.00;99.90
19232;DHT22;9750;48.730;10.294;2022-09-09T05:48:30;14.90;99.30
19232;DHT22;9750;48.730;10.294;2022-09-09T05:50:58;14.60;99.10
19232;DHT22;9750;48.730;10.294;2022-09-09T05:53:25;14.50;99.50
19232;DHT22;9750;48.730;10.294;2022-09-09T05:55:59;14.50;99.90
19232;DHT22;9750;48.730;10.294;2022-09-09T05:58:27;14.50;99.90
19232;DHT22;9750;48.730;10.294;2022-09-09T06:01:02;14.50;99.70
19232;DHT22;9750;48.730;10.294;2022-09-09T06:03:30;14.60;99.80
19232;DHT22;9750;48.730;10.294;2022-09-09T06:05:58;14.60;99.80
19232;DHT22;9750;48.730;10.294;2022-09-09T06:08:26;14.60;99.90
19232;DHT22;9750;48.730;10.294;2022-09-09T06:11:00;14.60;99.90
19232;DHT22;9750;48.730;10.294;2022-09-09T06:13:28;14.70;99.90
19232;DHT22;9750;48.730;10.294;2022-09-09T06:15:55;14.70;99.90
19232;DHT22;9750;48.730;10.294;2022-09-09T06:18:25;14.70;99.90
19232;DHT22;9750;48.730;10.294;2022-09-09T06:20:55;14.70;99.90
19232;DHT22;9750;48.730;10.294;2022-09-09T06:23:22;14.80;99.90
19232;DHT22;9750;48.730;10.294;2022-09-09T06:25:49;14.80;99.90
19232;DHT22;9750;48.730;10.294;2022-09-09T06:28:17;14.80;99.90
19232;DHT22;9750;48.730;10.294;2022-09-09T06:30:44;14.90;99.90
19232;DHT22;9750;48.730;10.294;2022-09-09T06:33:15;14.90;99.90
19232;DHT22;9750;48.730;10.294;2022-09-09T06:35:51;14.90;99.90
19232;DHT22;9750;48.730;10.294;2022-09-09T06:38:18;14.90;99.90
19232;DHT22;9750;48.730;10.294;2022-09-09T06:40:51;15.00;99.90
19232;DHT22;9750;48.730;10.294;2022-09-09T06:43:20;15.10;99.90
19232;DHT22;9750;48.730;10.294;2022-09-09T06:45:54;15.20;99.90
19232;DHT22;9750;48.730;10.294;2022-09-09T06:48:21;15.20;99.90
19232;DHT22;9750;48.730;10.294;2022-09-09T06:50:50;15.30;99.90
19232;DHT22;9750;48.730;10.294;2022-09-09T06:53:18;15.40;99.90
19232;DHT22;9750;48.730;10.294;2022-09-09T06:55:46;15.50;99.90
19232;DHT22;9750;48.730;10.294;2022-09-09T06:58:13;15.60;99.90
19232;DHT22;9750;48.730;10.294;2022-09-09T07:00:41;15.60;99.90
19232;DHT22;9750;48.730;10.294;2022-09-09T07:06:25;15.70;99.90
19232;DHT22;9750;48.730;10.294;2022-09-09T07:08:54;15.80;99.90
19232;DHT22;9750;48.730;10.294;2022-09-09T07:11:23;15.80;99.90
19232;DHT22;9750;48.730;10.294;2022-09-09T07:13:51;15.90;99.90
19232;DHT22;9750;48.730;10.294;2022-09-09T07:16:19;15.90;99.90
19232;DHT22;9750;48.730;10.294;2022-09-09T07:18:49;15.90;99.90
19232;DHT22;9750;48.730;10.294;2022-09-09T07:21:17;15.90;99.90
19232;DHT22;9750;48.730;10.294;2022-09-09T07:23:46;16.00;99.90
19232;DHT22;9750;48.730;10.294;2022-09-09T07:26:15;16.00;99.90
19232;DHT22;9750;48.730;10.294;2022-09-09T07:28:42;16.10;99.90
19232;DHT22;9750;48.730;10.294;2022-09-09T07:31:14;16.20;99.90
19232;DHT22;9750;48.730;10.294;2022-09-09T07:33:43;16.20;99.90
19232;DHT22;9750;48.730;10.294;2022-09-09T07:36:13;16.30;99.90
19232;DHT22;9750;48.730;10.294;2022-09-09T07:38:41;16.40;99.90
19232;DHT22;9750;48.730;10.294;2022-09-09T07:47:56;16.50;99.90
19232;DHT22;9750;48.730;10.294;2022-09-09T07:50:23;16.60;99.90
19232;DHT22;9750;48.730;10.294;2022-09-09T07:52:51;16.70;99.90
19232;DHT22;9750;48.730;10.294;2022-09-09T07:55:19;16.70;99.90
19232;DHT22;9750;48.730;10.294;2022-09-09T07:57:46;16.80;99.90
19232;DHT22;9750;48.730;10.294;2022-09-09T08:00:14;16.90;99.90
19232;DHT22;9750;48.730;10.294;2022-09-09T08:02:42;16.90;99.90
19232;DHT22;9750;48.730;10.294;2022-09-09T08:05:10;17.00;99.90
19232;DHT22;9750;48.730;10.294;2022-09-09T08:07:38;17.10;99.90
19232;DHT22;9750;48.730;10.294;2022-09-09T08:10:06;17.10;99.90
19232;DHT22;9750;48.730;10.294;2022-09-09T08:13:05;17.20;99.90
19232;DHT22;9750;48.730;10.294;2022-09-09T08:15:33;17.30;99.90
19232;DHT22;9750;48.730;10.294;2022-09-09T08:18:00;17.30;99.90
19232;DHT22;9750;48.730;10.294;2022-09-09T08:20:29;17.40;99.90
19232;DHT22;9750;48.730;10.294;2022-09-09T08:22:57;17.60;99.90
19232;DHT22;9750;48.730;10.294;2022-09-09T08:25:24;17.70;99.90
19232;DHT22;9750;48.730;10.294;2022-09-09T08:27:53;17.80;99.90
19232;DHT22;9750;48.730;10.294;2022-09-09T08:30:21;17.90;99.90
19232;DHT22;9750;48.730;10.294;2022-09-09T08:32:48;18.00;99.90
19232;DHT22;9750;48.730;10.294;2022-09-09T08:35:16;18.00;99.90
19232;DHT22;9750;48.730;10.294;2022-09-09T08:37:46;18.10;99.90
19232;DHT22;9750;48.730;10.294;2022-09-09T08:40:20;18.10;99.90
19232;DHT22;9750;48.730;10.294;2022-09-09T08:42:50;18.10;99.90
19232;DHT22;9750;48.730;10.294;2022-09-09T08:45:28;18.20;99.90
19232;DHT22;9750;48.730;10.294;2022-09-09T08:48:19;18.20;99.90
19232;DHT22;9750;48.730;10.294;2022-09-09T08:50:49;18.30;99.90
19232;DHT22;9750;48.730;10.294;2022-09-09T08:53:21;18.30;99.20
19232;DHT22;9750;48.730;10.294;2022-09-09T08:55:52;18.40;98.50
19232;DHT22;9750;48.730;10.294;2022-09-09T08:58:22;18.50;98.90
19232;DHT22;9750;48.730;10.294;2022-09-09T09:01:09;18.60;99.00
19232;DHT22;9750;48.730;10.294;2022-09-09T09:03:48;18.70;98.70
19232;DHT22;9750;48.730;10.294;2022-09-09T09:06:27;18.90;99.20
19232;DHT22;9750;48.730;10.294;2022-09-09T09:09:01;19.20;98.70
19232;DHT22;9750;48.730;10.294;2022-09-09T09:11:35;19.40;98.80
19232;DHT22;9750;48.730;10.294;2022-09-09T09:14:09;19.70;98.00
19232;DHT22;9750;48.730;10.294;2022-09-09T09:16:42;19.60;96.60
19232;DHT22;9750;48.730;10.294;2022-09-09T09:19:15;19.40;96.70
19232;DHT22;9750;48.730;10.294;2022-09-09T09:21:44;19.30;96.20
19232;DHT22;9750;48.730;10.294;2022-09-09T09:24:19;19.40;97.20
19232;DHT22;9750;48.730;10.294;2022-09-09T09:26:47;19.50;97.70
19232;DHT22;9750;48.730;10.294;2022-09-09T09:29:17;19.50;97.50
19232;DHT22;9750;48.730;10.294;2022-09-09T09:31:48;19.50;97.90
19232;DHT22;9750;48.730;10.294;2022-09-09T09:34:18;19.50;97.20
19232;DHT22;9750;48.730;10.294;2022-09-09T09:36:53;19.50;96.50
19232;DHT22;9750;48.730;10.294;2022-09-09T09:39:27;19.60;96.60
19232;DHT22;9750;48.730;10.294;2022-09-09T09:41:55;19.70;95.30
19232;DHT22;9750;48.730;10.294;2022-09-09T09:44:25;19.80;96.20
19232;DHT22;9750;48.730;10.294;2022-09-09T09:47:05;19.90;94.70
19232;DHT22;9750;48.730;10.294;2022-09-09T09:49:33;19.90;93.60
19232;DHT22;9750;48.730;10.294;2022-09-09T09:52:01;19.80;93.20
19232;DHT22;9750;48.730;10.294;2022-09-09T09:54:31;19.90;94.20
19232;DHT22;9750;48.730;10.294;2022-09-09T09:57:09;20.00;94.50
19232;DHT22;9750;48.730;10.294;2022-09-09T09:59:37;20.00;94.30
19232;DHT22;9750;48.730;10.294;2022-09-09T10:02:17;20.10;94.10
19232;DHT22;9750;48.730;10.294;2022-09-09T10:04:45;20.10;93.60
19232;DHT22;9750;48.730;10.294;2022-09-09T10:07:17;20.00;93.80
19232;DHT22;9750;48.730;10.294;2022-09-09T10:09:48;19.90;94.00
19232;DHT22;9750;48.730;10.294;2022-09-09T10:12:26;19.80;94.30
19232;DHT22;9750;48.730;10.294;2022-09-09T10:15:02;19.70;94.20
19232;DHT22;9750;48.730;10.294;2022-09-09T10:17:39;19.80;94.70
19232;DHT22;9750;48.730;10.294;2022-09-09T10:20:21;19.80;94.40
19232;DHT22;9750;48.730;10.294;2022-09-09T10:22:57;19.90;93.90
19232;DHT22;9750;48.730;10.294;2022-09-09T10:25:43;20.10;94.40
19232;DHT22;9750;48.730;10.294;2022-09-09T10:28:46;20.40;94.20
19232;DHT22;9750;48.730;10.294;2022-09-09T10:31:21;20.70;93.50
19232;DHT22;9750;48.730;10.294;2022-09-09T10:34:00;20.70;91.70
19232;DHT22;9750;48.730;10.294;2022-09-09T10:36:29;20.70;92.00
19232;DHT22;9750;48.730;10.294;2022-09-09T10:39:01;20.80;91.90
19232;DHT22;9750;48.730;10.294;2022-09-09T10:41:44;20.90;92.40
19232;DHT22;9750;48.730;10.294;2022-09-09T10:44:43;21.00;92.20
19232;DHT22;9750;48.730;10.294;2022-09-09T10:47:32;21.00;91.00
19232;DHT22;9750;48.730;10.294;2022-09-09T10:50:12;20.80;90.90
19232;DHT22;9750;48.730;10.294;2022-09-09T10:52:50;20.60;91.50
19232;DHT22;9750;48.730;10.294;2022-09-09T10:55:24;20.60;91.00
19232;DHT22;9750;48.730;10.294;2022-09-09T10:57:56;20.60;91.50
19232;DHT22;9750;48.730;10.294;2022-09-09T11:00:30;20.60;91.60
19232;DHT22;9750;48.730;10.294;2022-09-09T11:03:01;20.60;91.30
19232;DHT22;9750;48.730;10.294;2022-09-09T11:05:32;20.70;91.30
19232;DHT22;9750;48.730;10.294;2022-09-09T11:08:04;20.60;90.90
19232;DHT22;9750;48.730;10.294;2022-09-09T11:10:39;20.60;91.90
19232;DHT22;9750;48.730;10.294;2022-09-09T11:13:14;20.60;91.00
19232;DHT22;9750;48.730;10.294;2022-09-09T11:15:45;20.70;90.40
19232;DHT22;9750;48.730;10.294;2022-09-09T11:18:19;20.60;90.60
19232;DHT22;9750;48.730;10.294;2022-09-09T11:20:48;20.70;90.40
19232;DHT22;9750;48.730;10.294;2022-09-09T11:23:20;20.70;90.30
19232;DHT22;9750;48.730;10.294;2022-09-09T11:25:52;20.70;90.00
19232;DHT22;9750;48.730;10.294;2022-09-09T11:28:40;20.60;90.10
19232;DHT22;9750;48.730;10.294;2022-09-09T11:31:25;20.60;90.10
19232;DHT22;9750;48.730;10.294;2022-09-09T11:34:17;20.50;89.20
19232;DHT22;9750;48.730;10.294;2022-09-09T11:37:10;20.50;90.00
19232;DHT22;9750;48.730;10.294;2022-09-09T11:40:00;20.60;90.20
19232;DHT22;9750;48.730;10.294;2022-09-09T11:42:30;20.70;90.40
19232;DHT22;9750;48.730;10.294;2022-09-09T11:45:09;20.60;90.90
19232;DHT22;9750;48.730;10.294;2022-09-09T11:47:38;20.70;91.00
19232;DHT22;9750;48.730;10.294;2022-09-09T11:50:10;20.80;90.40
19232;DHT22;9750;48.730;10.294;2022-09-09T11:52:40;21.00;91.70
19232;DHT22;9750;48.730;10.294;2022-09-09T11:55:10;21.20;91.50
19232;DHT22;9750;48.730;10.294;2022-09-09T11:57:39;21.50;90.60
19232;DHT22;9750;48.730;10.294;2022-09-09T12:00:34;21.70;87.50
19232;DHT22;9750;48.730;10.294;2022-09-09T12:03:03;21.80;87.10
19232;DHT22;9750;48.730;10.294;2022-09-09T12:05:37;21.70;87.20
19232;DHT22;9750;48.730;10.294;2022-09-09T12:08:07;21.70;85.00
19232;DHT22;9750;48.730;10.294;2022-09-09T12:10:40;21.70;85.90
19232;DHT22;9750;48.730;10.294;2022-09-09T12:13:22;21.60;84.40
19232;DHT22;9750;48.730;10.294;2022-09-09T12:15:53;21.50;84.70
19232;DHT22;9750;48.730;10.294;2022-09-09T12:18:23;21.40;85.70
19232;DHT22;9750;48.730;10.294;2022-09-09T12:20:59;21.20;84.00
19232;DHT22;9750;48.730;10.294;2022-09-09T12:23:37;21.10;85.50
19232;DHT22;9750;48.730;10.294;2022-09-09T12:26:20;21.20;86.90
19232;DHT22;9750;48.730;10.294;2022-09-09T12:28:58;21.30;85.80
19232;DHT22;9750;48.730;10.294;2022-09-09T12:31:34;21.40;85.60
19232;DHT22;9750;48.730;10.294;2022-09-09T12:34:10;21.50;83.70
19232;DHT22;9750;48.730;10.294;2022-09-09T12:36:40;21.70;84.40
19232;DHT22;9750;48.730;10.294;2022-09-09T12:39:15;21.70;84.30
19232;DHT22;9750;48.730;10.294;2022-09-09T12:41:51;21.80;84.70
19232;DHT22;9750;48.730;10.294;2022-09-09T12:44:22;21.70;83.60
19232;DHT22;9750;48.730;10.294;2022-09-09T12:46:51;21.50;78.10
19232;DHT22;9750;48.730;10.294;2022-09-09T12:49:38;21.40;81.00
19232;DHT22;9750;48.730;10.294;2022-09-09T12:52:14;21.40;77.30
19232;DHT22;9750;48.730;10.294;2022-09-09T12:54:45;21.30;77.40
19232;DHT22;9750;48.730;10.294;2022-09-09T12:57:14;21.30;77.00
19232;DHT22;9750;48.730;10.294;2022-09-09T12:59:43;21.30;77.50
19232;DHT22;9750;48.730;10.294;2022-09-09T13:02:24;21.20;76.50
19232;DHT22;9750;48.730;10.294;2022-09-09T13:04:52;21.20;75.20
19232;DHT22;9750;48.730;10.294;2022-09-09T13:07:20;21.30;75.20
19232;DHT22;9750;48.730;10.294;2022-09-09T13:09:49;21.40;73.70
19232;DHT22;9750;48.730;10.294;2022-09-09T13:12:18;21.50;73.20
19232;DHT22;9750;48.730;10.294;2022-09-09T13:14:49;21.50;73.00
19232;DHT22;9750;48.730;10.294;2022-09-09T13:17:23;21.60;74.10
19232;DHT22;9750;48.730;10.294;2022-09-09T13:19:51;21.60;72.90
19232;DHT22;9750;48.730;10.294;2022-09-09T13:25:21;21.20;74.10
19232;DHT22;9750;48.730;10.294;2022-09-09T13:27:58;21.00;73.40
19232;DHT22;9750;48.730;10.294;2022-09-09T13:30:28;20.90;74.70
19232;DHT22;9750;48.730;10.294;2022-09-09T13:33:20;20.90;76.60
19232;DHT22;9750;48.730;10.294;2022-09-09T13:35:51;20.90;80.40
19232;DHT22;9750;48.730;10.294;2022-09-09T13:38:20;20.90;82.00
19232;DHT22;9750;48.730;10.294;2022-09-09T13:40:56;20.90;82.80
19232;DHT22;9750;48.730;10.294;2022-09-09T13:43:25;21.10;82.50
19232;DHT22;9750;48.730;10.294;2022-09-09T13:45:55;21.00;82.40
19232;DHT22;9750;48.730;10.294;2022-09-09T13:48:25;21.00;83.20
19232;DHT22;9750;48.730;10.294;2022-09-09T13:51:01;21.00;82.90
19232;DHT22;9750;48.730;10.294;2022-09-09T13:53:30;20.90;80.70
19232;DHT22;9750;48.730;10.294;2022-09-09T13:55:58;20.80;80.60
19232;DHT22;9750;48.730;10.294;2022-09-09T13:58:27;20.80;81.80
19232;DHT22;9750;48.730;10.294;2022-09-09T14:00:55;20.70;82.00
19232;DHT22;9750;48.730;10.294;2022-09-09T14:03:24;20.80;80.70
19232;DHT22;9750;48.730;10.294;2022-09-09T14:05:51;20.70;80.20
19232;DHT22;9750;48.730;10.294;2022-09-09T14:08:25;20.70;79.70
19232;DHT22;9750;48.730;10.294;2022-09-09T14:10:54;20.70;79.10
19232;DHT22;9750;48.730;10.294;2022-09-09T14:13:23;20.60;79.10
19232;DHT22;9750;48.730;10.294;2022-09-09T14:15:50;20.60;79.60
19232;DHT22;9750;48.730;10.294;2022-09-09T14:18:18;20.60;78.70
19232;DHT22;9750;48.730;10.294;2022-09-09T14:20:47;20.60;79.50
19232;DHT22;9750;48.730;10.294;2022-09-09T14:23:14;20.60;78.90
19232;DHT22;9750;48.730;10.294;2022-09-09T14:25:42;20.80;80.00
19232;DHT22;9750;48.730;10.294;2022-09-09T14:28:11;20.80;80.20
19232;DHT22;9750;48.730;10.294;2022-09-09T14:30:40;20.80;78.60
19232;DHT22;9750;48.730;10.294;2022-09-09T14:33:38;20.80;79.60
19232;DHT22;9750;48.730;10.294;2022-09-09T14:36:07;20.80;79.50
19232;DHT22;9750;48.730;10.294;2022-09-09T14:38:36;20.80;78.80
19232;DHT22;9750;48.730;10.294;2022-09-09T14:41:05;20.80;79.30
19232;DHT22;9750;48.730;10.294;2022-09-09T14:43:33;20.80;79.10
19232;DHT22;9750;48.730;10.294;2022-09-09T14:46:05;20.90;80.30
19232;DHT22;9750;48.730;10.294;2022-09-09T14:48:32;20.90;79.10
19232;DHT22;9750;48.730;10.294;2022-09-09T14:51:07;20.90;78.30
19232;DHT22;9750;48.730;10.294;2022-09-09T14:53:34;20.70;77.80
19232;DHT22;9750;48.730;10.294;2022-09-09T14:56:06;20.70;78.50
19232;DHT22;9750;48.730;10.294;2022-09-09T14:58:34;20.70;78.40
19232;DHT22;9750;48.730;10.294;2022-09-09T15:01:03;20.60;79.10
19232;DHT22;9750;48.730;10.294;2022-09-09T15:03:31;20.70;79.80
19232;DHT22;9750;48.730;10.294;2022-09-09T15:05:58;20.70;80.10
19232;DHT22;9750;48.730;10.294;2022-09-09T15:08:27;20.80;78.60
19232;DHT22;9750;48.730;10.294;2022-09-09T15:10:59;20.80;79.50
19232;DHT22;9750;48.730;10.294;2022-09-09T15:13:27;20.90;80.10
19232;DHT22;9750;48.730;10.294;2022-09-09T15:15:54;21.00;80.50
19232;DHT22;9750;48.730;10.294;2022-09-09T15:18:23;20.90;77.70
19232;DHT22;9750;48.730;10.294;2022-09-09T15:20:51;20.80;78.70
19232;DHT22;9750;48.730;10.294;2022-09-09T15:23:19;20.90;79.60
19232;DHT22;9750;48.730;10.294;2022-09-09T15:25:54;20.90;79.40
19232;DHT22;9750;48.730;10.294;2022-09-09T15:28:22;21.10;79.80
19232;DHT22;9750;48.730;10.294;2022-09-09T15:30:51;21.30;77.70
19232;DHT22;9750;48.730;10.294;2022-09-09T15:33:19;21.30;77.50
19232;DHT22;9750;48.730;10.294;2022-09-09T15:35:46;21.10;76.10
19232;DHT22;9750;48.730;10.294;2022-09-09T15:38:14;21.00;77.30
19232;DHT22;9750;48.730;10.294;2022-09-09T15:40:42;21.00;76.70
19232;DHT22;9750;48.730;10.294;2022-09-09T15:46:46;20.80;77.00
19232;DHT22;9750;48.730;10.294;2022-09-09T15:49:16;20.90;77.30
19232;DHT22;9750;48.730;10.294;2022-09-09T15:51:46;20.90;77.70
19232;DHT22;9750;48.730;10.294;2022-09-09T15:54:15;20.90;78.10
19232;DHT22;9750;48.730;10.294;2022-09-09T15:56:44;21.00;77.50
19232;DHT22;9750;48.730;10.294;2022-09-09T15:59:12;21.00;77.70
19232;DHT22;9750;48.730;10.294;2022-09-09T16:01:41;21.10;76.80
19232;DHT22;9750;48.730;10.294;2022-09-09T16:04:10;21.30;76.70
19232;DHT22;9750;48.730;10.294;2022-09-09T16:06:37;21.40;76.20
19232;DHT22;9750;48.730;10.294;2022-09-09T16:09:06;21.30;74.70
19232;DHT22;9750;48.730;10.294;2022-09-09T16:15:09;21.00;75.00
19232;DHT22;9750;48.730;10.294;2022-09-09T16:17:36;20.90;75.80
19232;DHT22;9750;48.730;10.294;2022-09-09T16:20:06;20.80;75.00
19232;DHT22;9750;48.730;10.294;2022-09-09T16:22:34;20.80;75.30